To NAV CANADA Home Page Login to a new session Search on AWWS site Feedback and Comments Disclaimer Vers la page française équivalente Tips FAQ What's new on the site To the Forecasts and Observations / NOTAM section To "File a Flight Plan" website Publications and other links Update of the User's profile FIC Telephone Numbers My Weather Data Folder Route Weather Data Regional Weather Data Local Weather Data To the Forecasts and Observations / NOTAM section
Request Generated 09/03/2015 at 10:49:20 UTC . Weather information available at that time is displayed.

METAR/TAF

STONY RAPIDS/SK    (show WxCam)

METAR CYSF 031000Z AUTO 15003KT 9SM OVC230 06/05 A2975 RMK SLP084=
METAR CYSF 030900Z AUTO 13002KT 9SM OVC150 07/07 A2975 RMK SLP085=
METAR CYSF 030800Z AUTO 00000KT 9SM BKN130 OVC150 08/07 A2977 RMK
SLP089=

TAF CYSF 030538Z 0306/0318 VRB03KT P6SM BKN040 TEMPO 0306/0314 2SM BR
BKN020 OVC040
FM031400 04007KT P6SM -RA BKN020 OVC040 TEMPO 0314/0318 2SM -SHRA
BR BKN008 OVC020
RMK FCST BASED ON AUTO OBS. NXT FCST BY 031200Z=
Your time UTC time
Weather data provided by Environment Canada and NAV CANADA